Time;durP1;ratioP1;P1;durP2;ratioP2;P2;SDS_P1;SDS_P2;PMS_P1;PMS_P2;Temp;Humidity;BMP_temperature;BMP_pressure;BME280_temperature;BME280_humidity;BME280_pressure;Samples;Min_cycle;Max_cycle;Signal;HPM_P1;HPM_P2
2022/08/17 00:01:08;;;;;;;4.35;3.33;;;17.90;99.90;;;;;;5118738;28;20027;-72
2022/08/17 00:03:38;;;;;;;7.05;3.63;;;17.80;99.90;;;;;;5118796;28;20047;-72
2022/08/17 00:06:12;;;;;;;5.20;2.88;;;17.80;99.90;;;;;;5116568;28;20008;-71
2022/08/17 00:08:47;;;;;;;5.00;2.88;;;17.80;99.90;;;;;;5116716;28;20027;-71
2022/08/17 00:11:28;;;;;;;9.13;3.67;;;17.70;99.90;;;;;;5118545;28;20024;-71
2022/08/17 00:13:57;;;;;;;6.70;3.85;;;17.70;99.90;;;;;;5118559;28;20035;-72
2022/08/17 00:16:33;;;;;;;8.95;4.60;;;17.70;99.90;;;;;;5112800;28;20027;-71
2022/08/17 00:19:00;;;;;;;6.20;4.63;;;17.70;99.90;;;;;;5117149;28;20027;-72
2022/08/17 00:21:27;;;;;;;10.57;4.65;;;17.60;99.90;;;;;;5118304;28;20020;-72
2022/08/17 00:23:54;;;;;;;6.07;4.60;;;17.60;99.90;;;;;;5117603;28;20027;-72
2022/08/17 00:26:21;;;;;;;5.78;4.80;;;17.60;99.90;;;;;;5117802;28;20118;-72
2022/08/17 00:28:47;;;;;;;6.20;4.53;;;17.60;99.90;;;;;;5103952;28;20035;-72
2022/08/17 00:31:13;;;;;;;8.60;4.43;;;17.60;99.90;;;;;;5115100;28;20024;-72
2022/08/17 00:33:41;;;;;;;8.98;4.90;;;17.50;99.90;;;;;;5118185;28;20034;-72
2022/08/17 00:36:07;;;;;;;5.68;4.72;;;17.50;99.90;;;;;;5113007;28;20024;-72
2022/08/17 00:38:33;;;;;;;7.75;4.75;;;17.50;99.90;;;;;;5116718;28;20388;-72
2022/08/17 00:41:07;;;;;;;9.25;4.82;;;17.50;99.90;;;;;;5110195;28;20021;-72
2022/08/17 00:43:40;;;;;;;11.75;4.88;;;17.50;99.90;;;;;;5118123;28;20045;-72
2022/08/17 00:46:10;;;;;;;7.50;5.28;;;17.50;99.90;;;;;;5117444;28;20101;-72
2022/08/17 00:48:37;;;;;;;7.80;5.30;;;17.50;99.90;;;;;;5117966;28;20034;-72
2022/08/17 00:51:06;;;;;;;13.68;4.82;;;17.50;99.90;;;;;;5117890;28;20254;-72
2022/08/17 00:53:35;;;;;;;6.15;5.00;;;17.50;99.90;;;;;;5117738;28;20028;-72
2022/08/17 00:56:06;;;;;;;13.00;5.20;;;17.50;99.90;;;;;;5117059;28;20045;-72
2022/08/17 00:58:33;;;;;;;11.05;5.47;;;17.60;99.90;;;;;;5114213;28;20028;-72
2022/08/17 01:01:00;;;;;;;8.95;5.63;;;17.60;99.90;;;;;;5115193;28;20114;-72
2022/08/17 01:03:28;;;;;;;9.70;5.65;;;17.60;99.90;;;;;;5117834;28;20147;-73
2022/08/17 01:05:57;;;;;;;9.65;5.50;;;17.70;99.90;;;;;;5110304;28;20027;-72
2022/08/17 01:08:26;;;;;;;7.88;6.22;;;17.80;99.90;;;;;;5115634;28;20073;-71
2022/08/17 01:10:54;;;;;;;5.47;4.13;;;17.70;99.90;;;;;;5117703;28;20032;-72
2022/08/17 01:13:22;;;;;;;5.93;4.50;;;17.80;99.90;;;;;;5116044;28;20084;-72
2022/08/17 01:15:57;;;;;;;6.38;4.68;;;17.80;99.90;;;;;;5117619;28;20506;-72
2022/08/17 01:18:25;;;;;;;5.35;4.28;;;17.80;99.90;;;;;;5104828;28;20394;-72
2022/08/17 01:20:53;;;;;;;7.68;4.10;;;17.80;99.90;;;;;;5117624;28;20020;-72
2022/08/17 01:23:22;;;;;;;5.43;3.28;;;17.90;99.90;;;;;;5117348;28;20020;-72
2022/08/17 01:25:55;;;;;;;4.10;3.35;;;17.80;99.90;;;;;;5111396;28;20040;-72
2022/08/17 01:28:24;;;;;;;10.48;3.95;;;17.80;99.90;;;;;;5116932;28;20106;-73
2022/08/17 01:30:50;;;;;;;4.97;3.30;;;17.70;99.90;;;;;;5109866;28;20492;-73
2022/08/17 01:33:15;;;;;;;8.10;3.58;;;17.70;99.90;;;;;;5103403;28;20019;-73
2022/08/17 01:35:41;;;;;;;5.32;4.00;;;17.60;99.90;;;;;;5117292;28;20392;-73
2022/08/17 01:38:08;;;;;;;5.18;3.58;;;17.60;99.90;;;;;;5117241;28;20031;-72
2022/08/17 01:40:48;;;;;;;7.20;4.28;;;17.60;99.90;;;;;;5117171;28;20467;-73
2022/08/17 01:43:38;;;;;;;7.70;4.20;;;17.50;99.90;;;;;;5117347;28;20031;-72
2022/08/17 01:46:04;;;;;;;10.97;4.07;;;17.50;99.90;;;;;;5112720;28;20285;-73
2022/08/17 01:48:33;;;;;;;7.85;4.03;;;17.40;99.90;;;;;;5107750;28;20053;-72
2022/08/17 01:50:59;;;;;;;5.07;3.97;;;17.40;99.90;;;;;;5114878;28;20051;-75
2022/08/17 01:53:37;;;;;;;4.95;4.03;;;17.40;99.90;;;;;;5115820;28;20475;-75
2022/08/17 01:56:11;;;;;;;9.32;5.32;;;17.40;99.90;;;;;;5115931;28;20038;-75
2022/08/17 01:58:39;;;;;;;7.38;4.22;;;17.40;99.90;;;;;;5115893;28;20023;-74
2022/08/17 02:01:07;;;;;;;10.98;5.05;;;17.40;99.90;;;;;;5115659;28;20073;-73
2022/08/17 02:03:33;;;;;;;7.55;3.85;;;17.40;99.90;;;;;;5115756;28;20020;-74
2022/08/17 02:06:00;;;;;;;7.95;4.25;;;17.40;99.90;;;;;;5105109;28;20558;-74
2022/08/17 02:08:27;;;;;;;5.93;4.10;;;17.40;99.90;;;;;;5115422;28;20050;-74
2022/08/17 02:10:54;;;;;;;5.63;4.30;;;17.50;99.90;;;;;;5117236;28;20016;-74
2022/08/17 02:13:20;;;;;;;7.30;4.07;;;17.50;99.90;;;;;;5115772;28;20055;-74
2022/08/17 02:15:46;;;;;;;8.35;4.22;;;17.50;99.90;;;;;;5103711;28;20031;-73
2022/08/17 02:18:13;;;;;;;6.10;4.20;;;17.40;99.90;;;;;;5115617;28;20028;-74
2022/08/17 02:20:41;;;;;;;8.93;5.60;;;17.40;99.90;;;;;;5115485;28;20016;-74
2022/08/17 02:23:09;;;;;;;5.97;4.45;;;17.40;99.90;;;;;;5116868;28;20035;-74
2022/08/17 02:25:37;;;;;;;7.20;4.38;;;17.40;99.90;;;;;;5110851;28;20040;-74
2022/08/17 02:28:03;;;;;;;6.25;4.97;;;17.30;99.90;;;;;;5109496;28;20085;-74
2022/08/17 02:30:29;;;;;;;9.13;5.18;;;17.30;99.90;;;;;;5118962;28;20055;-74
2022/08/17 02:32:55;;;;;;;5.97;4.82;;;17.30;99.90;;;;;;5120617;28;20030;-74
2022/08/17 02:35:22;;;;;;;11.40;5.20;;;17.30;99.90;;;;;;5120672;28;20051;-74
2022/08/17 02:37:48;;;;;;;6.63;4.20;;;17.30;99.90;;;;;;5118807;28;20027;-74
2022/08/17 02:40:15;;;;;;;8.52;4.78;;;17.30;99.90;;;;;;5120558;27;20024;-74
2022/08/17 02:42:43;;;;;;;10.55;4.95;;;17.30;99.90;;;;;;5119090;28;20053;-74
2022/08/17 02:45:13;;;;;;;6.13;4.57;;;17.30;99.90;;;;;;5120540;28;20027;-74
2022/08/17 02:47:39;;;;;;;11.23;5.13;;;17.30;99.90;;;;;;5120249;28;20020;-74
2022/08/17 02:50:07;;;;;;;10.45;4.90;;;17.40;99.90;;;;;;5120482;28;20090;-74
2022/08/17 02:52:38;;;;;;;8.82;4.60;;;17.40;99.90;;;;;;5116826;28;20035;-74
2022/08/17 02:55:17;;;;;;;7.75;4.78;;;17.40;99.90;;;;;;5115770;28;20119;-73
2022/08/17 02:57:43;;;;;;;6.53;3.88;;;17.40;99.90;;;;;;5120352;27;20435;-74
2022/08/17 03:00:15;;;;;;;6.03;3.92;;;17.40;99.90;;;;;;5118799;28;20077;-74
2022/08/17 03:02:43;;;;;;;5.22;3.95;;;17.30;99.90;;;;;;5119967;28;20027;-74
2022/08/17 03:05:11;;;;;;;5.13;4.28;;;17.20;99.90;;;;;;5119922;28;20081;-74
2022/08/17 03:07:38;;;;;;;9.13;4.35;;;17.20;99.90;;;;;;5119942;28;20063;-74
2022/08/17 03:10:05;;;;;;;12.15;5.18;;;17.20;99.90;;;;;;5118532;28;20376;-74
2022/08/17 03:12:37;;;;;;;9.73;4.55;;;17.10;99.90;;;;;;5118667;28;20061;-74
2022/08/17 03:15:21;;;;;;;6.18;4.10;;;17.10;99.90;;;;;;5119641;28;20480;-74
2022/08/17 03:17:47;;;;;;;7.13;4.38;;;17.10;99.90;;;;;;5118156;28;20110;-74
2022/08/17 03:20:15;;;;;;;7.97;3.78;;;17.00;99.90;;;;;;5119186;27;20471;-74
2022/08/17 03:22:46;;;;;;;9.43;4.78;;;17.10;99.90;;;;;;5117287;28;20023;-74
2022/08/17 03:25:14;;;;;;;8.02;4.93;;;17.00;99.90;;;;;;5119287;28;20023;-74
2022/08/17 03:27:40;;;;;;;8.13;5.03;;;17.00;99.90;;;;;;5119726;28;20024;-74
2022/08/17 03:30:09;;;;;;;7.20;4.43;;;17.10;99.90;;;;;;5114505;28;20027;-74
2022/08/17 03:32:56;;;;;;;9.43;4.72;;;17.10;99.90;;;;;;5113250;28;20582;-74
2022/08/17 03:35:26;;;;;;;6.90;4.75;;;17.10;99.90;;;;;;5105766;28;20517;-74
2022/08/17 03:37:54;;;;;;;6.03;3.83;;;17.10;99.90;;;;;;5110949;28;20030;-74
2022/08/17 03:40:20;;;;;;;10.05;4.45;;;17.00;99.90;;;;;;5117700;28;20499;-74
2022/08/17 03:42:46;;;;;;;9.07;4.20;;;17.00;99.90;;;;;;5119430;27;20016;-74
2022/08/17 03:45:16;;;;;;;7.53;4.35;;;17.00;99.90;;;;;;5118234;28;20024;-74
2022/08/17 03:58:48;;;;;;;7.20;4.70;;;17.00;99.90;;;;;;5113421;28;20062;-73
2022/08/17 04:01:16;;;;;;;10.10;4.07;;;17.00;99.90;;;;;;5118628;28;20426;-74
2022/08/17 04:03:41;;;;;;;6.32;4.43;;;16.90;99.90;;;;;;5118811;28;20020;-74
2022/08/17 04:06:07;;;;;;;7.28;4.05;;;16.90;99.90;;;;;;5117526;28;20030;-73
2022/08/17 04:08:33;;;;;;;7.30;4.18;;;16.90;99.90;;;;;;5118449;28;20094;-74
2022/08/17 04:11:00;;;;;;;6.65;3.72;;;16.90;99.90;;;;;;5118883;28;20478;-74
2022/08/17 04:13:26;;;;;;;6.65;3.95;;;16.90;99.90;;;;;;5118576;28;20498;-74
2022/08/17 04:15:52;;;;;;;7.40;4.03;;;16.90;99.90;;;;;;5118743;28;20019;-73
2022/08/17 04:18:18;;;;;;;7.90;4.22;;;16.80;99.90;;;;;;5105151;28;20024;-74
2022/08/17 04:20:45;;;;;;;6.90;4.22;;;16.90;99.90;;;;;;5118679;28;20035;-73
2022/08/17 04:23:14;;;;;;;6.75;4.32;;;16.90;99.90;;;;;;5116480;28;20031;-74
2022/08/17 04:25:47;;;;;;;6.72;4.03;;;16.80;99.90;;;;;;5110988;28;20097;-74
2022/08/17 04:28:15;;;;;;;7.25;3.95;;;16.80;99.90;;;;;;5114712;28;20015;-74
2022/08/17 04:30:43;;;;;;;6.95;4.85;;;16.80;99.90;;;;;;5118575;28;20031;-74
2022/08/17 04:33:18;;;;;;;7.93;4.65;;;16.80;99.90;;;;;;5112636;28;20077;-74
2022/08/17 04:35:52;;;;;;;9.30;4.07;;;16.80;99.90;;;;;;5118277;28;20033;-74
2022/08/17 04:38:21;;;;;;;9.57;4.90;;;16.80;99.90;;;;;;5110504;28;20023;-74
2022/08/17 04:43:33;;;;;;;7.05;4.65;;;17.00;99.90;;;;;;5118223;28;20080;-74
2022/08/17 04:46:04;;;;;;;10.60;4.40;;;17.00;99.90;;;;;;5116541;28;20463;-74
2022/08/17 04:48:34;;;;;;;9.60;4.07;;;17.10;99.90;;;;;;5118241;28;20030;-74
2022/08/17 04:51:01;;;;;;;10.47;4.80;;;17.10;99.90;;;;;;5117792;28;20028;-74
2022/08/17 04:53:27;;;;;;;8.02;4.68;;;17.20;99.90;;;;;;5117389;28;20031;-74
2022/08/17 04:55:54;;;;;;;9.95;4.47;;;17.30;99.90;;;;;;5107370;28;20030;-74
2022/08/17 04:58:20;;;;;;;6.15;4.00;;;17.30;99.90;;;;;;5117917;28;20043;-74
2022/08/17 05:00:46;;;;;;;7.85;4.80;;;17.40;99.90;;;;;;5117747;28;20057;-74
2022/08/17 05:03:12;;;;;;;6.80;3.83;;;17.50;99.90;;;;;;5117616;28;20068;-74
2022/08/17 05:05:50;;;;;;;10.55;4.95;;;17.50;99.90;;;;;;5117814;28;20024;-74
2022/08/17 05:08:18;;;;;;;8.15;4.30;;;17.50;99.90;;;;;;5117519;28;20015;-73
2022/08/17 05:10:44;;;;;;;9.45;4.70;;;17.60;99.90;;;;;;5106958;28;20444;-73
2022/08/17 05:13:17;;;;;;;7.75;3.92;;;17.60;99.90;;;;;;5117552;28;20023;-73
2022/08/17 05:15:44;;;;;;;8.50;4.80;;;17.70;99.90;;;;;;5117653;28;20034;-74
2022/08/17 05:18:10;;;;;;;8.68;4.50;;;17.70;99.90;;;;;;5116122;28;20433;-74
2022/08/17 05:20:38;;;;;;;9.18;4.13;;;17.80;99.90;;;;;;5117820;28;20019;-74
2022/08/17 05:23:08;;;;;;;6.85;3.92;;;17.80;99.90;;;;;;5117483;28;20107;-74
2022/08/17 05:25:46;;;;;;;9.90;4.63;;;17.80;99.90;;;;;;5111394;28;20492;-74
2022/08/17 05:28:12;;;;;;;7.43;4.13;;;17.80;99.90;;;;;;5116157;28;20019;-72
2022/08/17 05:30:40;;;;;;;6.63;4.47;;;17.80;99.90;;;;;;5111779;28;20028;-74
2022/08/17 05:33:34;;;;;;;9.40;4.25;;;17.90;99.90;;;;;;5113586;28;20069;-74
2022/08/17 05:36:00;;;;;;;6.05;4.38;;;17.90;99.90;;;;;;5113154;28;20042;-74
2022/08/17 05:38:29;;;;;;;11.85;4.75;;;17.90;99.90;;;;;;5115960;28;20460;-74
2022/08/17 05:40:55;;;;;;;13.75;5.78;;;17.90;99.90;;;;;;5116177;28;20023;-74
2022/08/17 05:43:43;;;;;;;;;;;;;;;;;;;;;
2022/08/17 05:46:21;;;;;;;8.00;3.95;;;18.00;99.90;;;;;;5114450;28;20020;-74
2022/08/17 05:48:54;;;;;;;6.88;4.78;;;18.00;99.90;;;;;;5113993;28;20054;-74
2022/08/17 05:51:30;;;;;;;7.40;4.28;;;18.10;99.90;;;;;;5117292;28;20019;-74
2022/08/17 05:54:07;;;;;;;12.55;4.68;;;18.10;99.90;;;;;;5116985;28;20462;-74
2022/08/17 05:56:48;;;;;;;7.90;4.65;;;18.10;99.90;;;;;;5116159;28;20019;-74
2022/08/17 05:59:19;;;;;;;;;;;18.10;99.90;;;;;;5117475;28;20027;-73
2022/08/17 06:02:17;;;;;;;14.10;4.28;;;18.10;99.90;;;;;;5117236;28;19908;-74
2022/08/17 06:05:14;;;;;;;6.93;4.72;;;18.20;99.90;;;;;;5097054;28;20036;-74
2022/08/17 06:08:13;;;;;;;7.28;4.10;;;18.30;99.90;;;;;;5106433;28;20028;-73
2022/08/17 06:10:57;;;;;;;9.20;5.20;;;18.40;99.90;;;;;;5113857;28;20024;-74
2022/08/17 06:13:42;;;;;;;9.95;5.07;;;18.40;99.90;;;;;;5115113;28;20026;-74
2022/08/17 06:16:14;;;;;;;8.35;4.35;;;18.50;99.90;;;;;;5120885;28;20020;-74
2022/08/17 06:19:05;;;;;;;9.90;4.40;;;18.60;99.90;;;;;;5112067;27;20509;-74
2022/08/17 06:21:39;;;;;;;12.07;4.72;;;18.60;99.90;;;;;;5120731;28;20145;-74
2022/08/17 06:24:18;;;;;;;9.90;5.45;;;18.60;99.90;;;;;;5119401;28;20494;-74
2022/08/17 06:26:44;;;;;;;8.00;4.25;;;18.70;99.90;;;;;;5119583;28;20043;-74
2022/08/17 06:29:38;;;;;;;8.00;4.22;;;18.80;99.90;;;;;;5119500;28;20023;-74
2022/08/17 06:32:08;;;;;;;8.70;4.40;;;18.90;99.90;;;;;;5105735;28;20030;-74
2022/08/17 06:34:36;;;;;;;5.10;3.83;;;18.90;99.90;;;;;;5120607;28;20080;-74
2022/08/17 06:37:33;;;;;;;8.90;4.40;;;18.90;99.90;;;;;;5116317;28;20023;-74
2022/08/17 06:40:19;;;;;;;8.88;4.60;;;18.90;99.90;;;;;;5117469;28;20034;-74
2022/08/17 06:43:00;;;;;;;6.50;4.10;;;18.90;99.90;;;;;;5073845;28;20048;-74
2022/08/17 06:45:47;;;;;;;10.23;4.07;;;18.90;99.90;;;;;;5120361;28;20031;-74
2022/08/17 06:48:32;;;;;;;6.90;4.15;;;18.90;99.90;;;;;;5119232;28;20052;-73
2022/08/17 06:51:34;;;;;;;8.52;4.30;;;18.90;99.90;;;;;;5115497;28;20030;-74
2022/08/17 06:54:05;;;;;;;8.48;4.85;;;18.90;99.90;;;;;;5120112;28;20388;-74
2022/08/17 06:56:56;;;;;;;9.85;4.32;;;19.00;99.90;;;;;;5120374;28;20026;-74
2022/08/17 06:59:32;;;;;;;6.78;4.20;;;19.00;99.90;;;;;;5117145;28;20015;-74
2022/08/17 07:02:04;;;;;;;7.35;4.80;;;18.90;99.90;;;;;;5118731;28;20023;-73
2022/08/17 07:04:33;;;;;;;6.00;4.10;;;18.90;99.90;;;;;;5120211;28;20383;-73
2022/08/17 07:08:00;;;;;;;8.57;3.63;;;19.00;99.90;;;;;;5107560;28;20488;-74
2022/08/17 07:09:51;;;;;;;11.40;4.32;;;19.10;99.90;;;;;;5110575;28;20441;-73
2022/08/17 07:12:39;;;;;;;8.57;3.95;;;19.20;99.90;;;;;;5119760;28;20032;-74
2022/08/17 07:15:08;;;;;;;8.90;4.78;;;19.30;99.90;;;;;;5119400;28;20028;-74
2022/08/17 07:17:34;;;;;;;10.32;4.32;;;19.30;99.90;;;;;;5113371;28;20034;-74
2022/08/17 07:20:06;;;;;;;17.90;5.00;;;19.30;99.90;;;;;;5119692;28;20024;-75
2022/08/17 07:22:48;;;;;;;10.35;4.57;;;19.30;99.90;;;;;;5118198;28;20016;-77
2022/08/17 07:25:17;;;;;;;8.68;4.68;;;19.30;99.90;;;;;;5115337;28;20020;-75
2022/08/17 07:27:54;;;;;;;8.15;4.28;;;19.30;99.90;;;;;;5106842;28;20028;-75
2022/08/17 07:30:25;;;;;;;7.45;4.38;;;19.30;99.90;;;;;;5112552;28;20047;-75
2022/08/17 07:32:52;;;;;;;;;;;19.40;99.90;;;;;;5119972;28;20065;-75
2022/08/17 07:35:38;;;;;;;10.25;4.90;;;19.50;99.90;;;;;;5108275;28;19903;-75
2022/08/17 07:38:23;;;;;;;6.82;4.82;;;19.60;99.90;;;;;;5114273;28;20023;-76
2022/08/17 07:41:01;;;;;;;10.13;5.20;;;19.70;99.90;;;;;;5111468;28;20028;-75
2022/08/17 07:43:35;;;;;;;9.13;4.68;;;19.70;99.90;;;;;;5117876;28;20026;-75
2022/08/17 07:49:18;;;;;;;8.73;5.85;;;19.90;99.90;;;;;;5119122;28;20140;-75
2022/08/17 07:51:45;;;;;;;10.30;5.05;;;19.90;99.90;;;;;;5113098;28;20078;-74
2022/08/17 07:54:14;;;;;;;7.00;4.57;;;19.90;99.90;;;;;;5118755;28;20019;-76
2022/08/17 07:56:46;;;;;;;6.35;4.65;;;20.00;99.90;;;;;;5118909;28;20119;-75
2022/08/17 07:59:14;;;;;;;6.32;4.28;;;20.00;99.90;;;;;;5117261;28;20015;-74
2022/08/17 08:01:44;;;;;;;11.43;5.20;;;20.20;99.90;;;;;;5109720;28;20035;-78
2022/08/17 08:04:37;;;;;;;7.68;4.63;;;20.30;99.90;;;;;;5117060;28;20062;-75
2022/08/17 08:07:22;;;;;;;8.68;3.97;;;20.40;99.90;;;;;;5117611;28;20043;-77
2022/08/17 08:10:13;;;;;;;7.53;4.10;;;20.40;99.90;;;;;;5112584;28;20115;-77
2022/08/17 08:12:43;;;;;;;11.98;4.90;;;20.50;99.90;;;;;;5107522;28;20027;-77
2022/08/17 08:15:21;;;;;;;7.03;4.25;;;20.80;99.90;;;;;;5116522;28;20043;-77
2022/08/17 08:17:59;;;;;;;7.20;4.30;;;20.90;99.90;;;;;;5108948;28;20024;-77
2022/08/17 08:20:52;;;;;;;12.82;3.83;;;21.00;99.90;;;;;;5116913;28;20019;-77
2022/08/17 08:23:24;;;;;;;9.27;3.63;;;21.00;99.90;;;;;;5115690;28;20011;-76
2022/08/17 08:25:59;;;;;;;8.80;3.83;;;21.10;99.90;;;;;;5100108;28;20040;-76
2022/08/17 08:28:50;;;;;;;6.07;3.53;;;21.10;99.90;;;;;;5111979;28;20017;-81
2022/08/17 08:31:33;;;;;;;12.65;3.70;;;21.20;99.90;;;;;;5102832;28;20030;-77
2022/08/17 08:34:12;;;;;;;6.38;3.85;;;21.30;99.90;;;;;;5106214;28;20097;-77
2022/08/17 08:37:18;;;;;;;7.70;3.80;;;21.30;99.90;;;;;;5114432;28;20032;-77
2022/08/17 08:39:50;;;;;;;17.27;4.65;;;21.10;99.90;;;;;;5114634;28;20118;-76
2022/08/17 08:42:36;;;;;;;5.07;3.92;;;21.10;99.90;;;;;;5118176;28;20020;-75
2022/08/17 08:45:05;;;;;;;8.93;3.05;;;21.00;99.90;;;;;;5111281;28;20024;-76
2022/08/17 08:47:47;;;;;;;5.15;3.67;;;21.00;99.90;;;;;;5097779;28;20016;-75
2022/08/17 08:50:51;;;;;;;6.57;4.03;;;21.00;99.90;;;;;;5114831;28;20027;-75
2022/08/17 08:53:43;;;;;;;5.28;4.25;;;21.00;99.90;;;;;;5114571;28;20023;-75
2022/08/17 08:56:22;;;;;;;6.45;4.05;;;21.00;99.90;;;;;;5109743;28;20567;-76
2022/08/17 08:59:12;;;;;;;9.05;3.35;;;21.00;99.90;;;;;;5098389;28;20561;-75
2022/08/17 09:02:04;;;;;;;17.98;4.03;;;21.10;99.90;;;;;;5109818;28;20024;-77
2022/08/17 09:04:38;;;;;;;5.90;3.97;;;21.20;99.90;;;;;;5113698;28;20024;-76
2022/08/17 09:07:30;;;;;;;10.20;4.25;;;21.10;99.90;;;;;;5115218;28;20024;-75
2022/08/17 09:09:56;;;;;;;6.60;4.45;;;21.10;99.90;;;;;;5076097;28;20039;-76
2022/08/17 09:12:32;;;;;;;5.72;3.60;;;21.20;99.90;;;;;;5110518;28;20020;-76
2022/08/17 09:15:11;;;;;;;7.18;3.70;;;21.10;99.90;;;;;;5110495;28;20072;-76
2022/08/17 09:17:48;;;;;;;6.70;4.00;;;21.10;99.90;;;;;;5110951;28;20039;-75
2022/08/17 09:20:52;;;;;;;11.55;4.43;;;21.20;99.90;;;;;;5102679;28;20015;-75
2022/08/17 09:23:41;;;;;;;8.82;4.13;;;21.40;99.90;;;;;;5102121;28;20061;-75
2022/08/17 09:26:21;;;;;;;8.55;4.63;;;21.50;99.90;;;;;;5113892;28;20081;-76
2022/08/17 09:28:51;;;;;;;7.50;3.20;;;21.60;99.90;;;;;;5116144;28;20116;-76
2022/08/17 09:31:37;;;;;;;8.35;3.35;;;21.50;99.90;;;;;;5117450;28;20024;-75
2022/08/17 09:34:10;;;;;;;10.00;4.18;;;21.50;99.90;;;;;;5108800;28;20020;-75
2022/08/17 09:36:54;;;;;;;12.88;4.18;;;21.40;99.90;;;;;;5114838;28;20472;-75
2022/08/17 09:39:29;;;;;;;6.70;3.47;;;21.30;99.90;;;;;;5117965;28;20023;-74
2022/08/17 09:42:07;;;;;;;8.57;4.05;;;21.40;99.90;;;;;;5121571;28;20110;-75
2022/08/17 09:44:52;;;;;;;8.63;3.65;;;21.40;99.90;;;;;;5118833;28;20016;-75
2022/08/17 09:47:31;;;;;;;7.90;3.55;;;21.50;99.90;;;;;;5121576;28;20132;-75
2022/08/17 09:50:04;;;;;;;8.45;4.30;;;21.50;99.90;;;;;;5111976;28;20494;-75
2022/08/17 09:52:31;;;;;;;6.72;3.70;;;21.60;99.90;;;;;;5111345;28;20028;-75
2022/08/17 09:54:59;;;;;;;9.23;3.50;;;21.70;99.90;;;;;;5121520;28;20026;-75
2022/08/17 09:57:58;;;;;;;9.75;3.83;;;21.70;99.90;;;;;;5120942;28;20023;-76
2022/08/17 10:00:33;;;;;;;8.75;3.13;;;21.90;99.90;;;;;;5119157;28;20039;-78
2022/08/17 10:03:16;;;;;;;8.43;3.53;;;22.00;99.90;;;;;;5118690;28;20016;-77
2022/08/17 10:06:05;;;;;;;6.72;2.92;;;22.00;99.90;;;;;;5118672;28;20396;-74
2022/08/17 10:08:54;;;;;;;9.25;3.22;;;22.10;99.90;;;;;;5115648;27;20021;-75
2022/08/17 10:14:36;;;;;;;9.25;3.00;;;22.30;99.90;;;;;;5121365;28;20062;-76
2022/08/17 10:17:22;;;;;;;7.15;2.90;;;22.40;99.90;;;;;;5116886;28;20110;-75
2022/08/17 10:20:04;;;;;;;6.10;2.53;;;22.40;99.90;;;;;;5111060;28;20129;-75
2022/08/17 10:29:04;;;;;;;7.97;3.67;;;22.90;99.90;;;;;;5120895;28;20430;-76
2022/08/17 10:31:37;;;;;;;7.30;2.35;;;23.40;99.90;;;;;;5116070;28;20036;-75
2022/08/17 10:34:25;;;;;;;6.00;2.03;;;23.60;99.90;;;;;;5107007;28;20058;-75
2022/08/17 10:37:06;;;;;;;4.50;2.30;;;23.50;99.90;;;;;;5108031;28;20110;-76
2022/08/17 10:40:21;;;;;;;5.32;2.80;;;23.60;99.90;;;;;;5119100;28;20119;-74
2022/08/17 10:42:57;;;;;;;7.43;2.88;;;23.40;99.90;;;;;;5078275;28;20422;-75
2022/08/17 10:45:43;;;;;;;5.15;2.35;;;23.50;99.90;;;;;;5120449;27;20024;-75
2022/08/17 10:48:11;;;;;;;3.28;2.67;;;23.70;99.90;;;;;;5115810;28;20047;-76
2022/08/17 10:50:56;;;;;;;4.75;2.60;;;23.50;99.90;;;;;;5117994;28;20452;-77
2022/08/17 10:53:31;;;;;;;7.13;2.70;;;23.30;99.90;;;;;;5118880;28;20500;-76
2022/08/17 10:56:12;;;;;;;4.90;2.72;;;23.40;99.90;;;;;;5116766;28;20062;-76
2022/08/17 10:58:56;;;;;;;8.50;3.15;;;23.60;99.90;;;;;;5109927;28;20387;-75
2022/08/17 11:01:37;;;;;;;6.40;2.15;;;23.80;99.90;;;;;;5109396;28;20073;-76
2022/08/17 11:04:18;;;;;;;7.38;2.58;;;24.00;99.90;;;;;;5118923;28;20020;-76
2022/08/17 11:07:00;;;;;;;3.40;1.85;;;24.30;99.90;;;;;;5112815;28;20049;-78
2022/08/17 11:10:00;;;;;;;4.03;2.30;;;24.20;99.90;;;;;;5119868;28;20011;-74
2022/08/17 11:12:29;;;;;;;5.53;2.42;;;24.20;99.90;;;;;;5108270;28;20139;-76
2022/08/17 11:15:19;;;;;;;6.20;2.38;;;24.20;99.90;;;;;;5118240;28;20027;-75
2022/08/17 11:18:09;;;;;;;5.53;2.60;;;24.30;99.90;;;;;;5117889;28;20036;-74
2022/08/17 11:21:04;;;;;;;4.32;2.10;;;24.70;99.90;;;;;;5118027;28;20028;-73
2022/08/17 11:23:42;;;;;;;5.80;1.80;;;24.90;99.90;;;;;;5103669;28;20496;-74
2022/08/17 11:26:28;;;;;;;5.07;2.50;;;25.00;99.90;;;;;;5119577;28;20454;-74
2022/08/17 11:29:00;;;;;;;9.35;2.42;;;25.10;99.90;;;;;;5100291;28;20510;-74
2022/08/17 11:31:32;;;;;;;5.30;2.38;;;25.30;99.90;;;;;;5115091;28;20145;-76
2022/08/17 11:34:03;;;;;;;3.45;1.70;;;25.30;99.90;;;;;;5118038;28;20091;-75
2022/08/17 11:36:47;;;;;;;5.13;2.25;;;25.20;99.90;;;;;;5118808;28;20012;-73
2022/08/17 11:39:40;;;;;;;2.60;1.83;;;25.10;99.90;;;;;;5117992;28;20023;-74
2022/08/17 11:42:22;;;;;;;4.28;2.35;;;25.30;99.90;;;;;;5119476;28;20023;-75
2022/08/17 11:45:06;;;;;;;3.38;1.55;;;25.40;99.90;;;;;;5117114;28;20023;-75
2022/08/17 11:53:36;;;;;;;3.75;1.60;;;25.80;99.90;;;;;;5119201;28;20063;-76
2022/08/17 11:56:09;;;;;;;6.38;1.98;;;25.70;99.90;;;;;;5118946;28;20402;-74
2022/08/17 11:58:38;;;;;;;11.00;2.70;;;26.00;99.90;;;;;;5119060;28;20028;-75
2022/08/17 12:01:11;;;;;;;6.43;2.03;;;26.10;99.90;;;;;;5118687;28;20020;-75
2022/08/17 12:03:36;;;;;;;3.25;2.08;;;26.40;99.90;;;;;;5115098;28;20055;-75
2022/08/17 12:06:18;;;;;;;6.97;2.13;;;26.50;99.90;;;;;;5117738;28;20015;-74
2022/08/17 12:09:16;;;;;;;4.03;2.00;;;26.60;99.90;;;;;;5110412;28;20103;-74
2022/08/17 12:12:00;;;;;;;5.10;1.73;;;26.70;99.90;;;;;;5111058;28;20066;-75
2022/08/17 12:14:29;;;;;;;8.50;2.05;;;27.10;99.90;;;;;;5116665;28;20020;-74
2022/08/17 12:17:08;;;;;;;4.57;2.07;;;26.90;99.40;;;;;;5117639;28;20551;-74
2022/08/17 12:19:35;;;;;;;4.45;2.22;;;26.60;99.90;;;;;;5110708;28;20292;-76
2022/08/17 12:22:42;;;;;;;3.70;2.05;;;26.40;99.90;;;;;;5116232;28;20024;-76
2022/08/17 12:25:11;;;;;;;4.03;2.17;;;26.00;99.90;;;;;;5116138;28;20055;-76
2022/08/17 12:27:46;;;;;;;6.07;2.42;;;25.80;99.90;;;;;;5115666;28;20027;-77
2022/08/17 12:30:15;;;;;;;5.05;2.63;;;25.80;99.90;;;;;;5117015;28;20020;-75
2022/08/17 12:32:46;;;;;;;5.95;2.03;;;25.70;99.90;;;;;;5107270;28;20020;-73
2022/08/17 12:35:20;;;;;;;6.50;2.25;;;25.80;99.90;;;;;;5116420;28;20020;-74
2022/08/17 12:37:48;;;;;;;4.63;2.42;;;25.80;99.90;;;;;;5113399;28;20027;-73
2022/08/17 12:40:22;;;;;;;5.70;2.70;;;25.90;99.90;;;;;;5116984;28;20020;-74
2022/08/17 12:42:59;;;;;;;6.43;2.67;;;25.80;99.90;;;;;;5118276;28;20070;-73
2022/08/17 12:45:32;;;;;;;7.25;2.20;;;25.80;99.90;;;;;;5118062;28;20387;-75
2022/08/17 12:48:08;;;;;;;5.03;2.45;;;25.50;99.90;;;;;;5109239;28;20497;-74
2022/08/17 12:50:35;;;;;;;3.63;2.38;;;25.30;99.90;;;;;;5113034;28;20028;-75
2022/08/17 12:53:02;;;;;;;6.00;2.33;;;25.30;99.90;;;;;;5117577;28;20023;-74
2022/08/17 12:55:28;;;;;;;7.60;2.00;;;25.20;99.90;;;;;;5117850;28;20028;-75
2022/08/17 12:57:58;;;;;;;5.28;2.20;;;25.20;99.90;;;;;;5104558;28;20039;-74
2022/08/17 13:00:26;;;;;;;4.00;2.33;;;24.90;99.90;;;;;;5116246;28;20023;-75
2022/08/17 13:03:08;;;;;;;4.65;2.22;;;24.90;99.90;;;;;;5117875;28;20257;-73
2022/08/17 13:05:37;;;;;;;6.15;2.42;;;24.80;99.90;;;;;;5115455;28;20024;-74
2022/08/17 13:08:14;;;;;;;5.05;2.30;;;24.60;99.90;;;;;;5117568;28;20026;-73
2022/08/17 13:10:40;;;;;;;6.00;2.47;;;24.60;99.90;;;;;;5117597;28;20421;-74
2022/08/17 13:13:27;;;;;;;4.25;2.38;;;24.60;99.90;;;;;;5112577;28;20016;-75
2022/08/17 13:15:59;;;;;;;4.97;2.17;;;24.50;99.90;;;;;;5107988;28;20038;-75
2022/08/17 13:18:40;;;;;;;4.32;1.90;;;24.60;99.90;;;;;;5103895;28;20028;-73
2022/08/17 13:21:10;;;;;;;;;;;25.20;99.90;;;;;;5114705;28;20027;-74
2022/08/17 13:23:36;;;;;;;12.02;3.72;;;25.50;99.90;;;;;;5117383;28;19927;-74
2022/08/17 13:26:13;;;;;;;5.00;2.60;;;25.70;99.90;;;;;;5117109;28;20058;-75
2022/08/17 13:28:46;;;;;;;3.65;1.95;;;25.90;99.90;;;;;;5104197;28;20069;-74
2022/08/17 13:31:22;;;;;;;7.28;2.05;;;26.10;99.90;;;;;;5116788;28;20027;-77
2022/08/17 13:33:49;;;;;;;5.25;2.35;;;26.20;99.20;;;;;;5117563;28;20533;-76
2022/08/17 13:36:29;;;;;;;3.88;2.03;;;26.00;99.20;;;;;;5115931;28;20055;-74
2022/08/17 13:39:15;;;;;;;6.00;2.38;;;25.80;99.60;;;;;;5113508;28;20031;-74
2022/08/17 13:41:41;;;;;;;4.80;2.20;;;25.80;99.50;;;;;;5117130;28;20024;-74
2022/08/17 13:44:39;;;;;;;9.43;2.92;;;25.60;99.90;;;;;;5117359;28;20031;-74
2022/08/17 13:47:16;;;;;;;8.55;2.72;;;25.50;99.90;;;;;;5115433;28;20028;-77
2022/08/17 13:49:43;;;;;;;4.60;2.15;;;25.60;99.70;;;;;;5115966;28;20024;-74
2022/08/17 13:52:33;;;;;;;3.90;2.10;;;25.70;99.20;;;;;;5109052;28;20020;-74
2022/08/17 13:55:02;;;;;;;5.00;2.20;;;25.80;99.20;;;;;;5112260;28;20085;-76
2022/08/17 13:57:28;;;;;;;3.92;2.33;;;26.10;98.60;;;;;;5117208;28;20114;-75
2022/08/17 14:00:29;;;;;;;4.32;2.42;;;26.30;98.10;;;;;;5115645;28;20088;-75